sim
Sign-in with your pilot id or email,
or register
Callsign
Passwort

Schedule Details

Flight Number: OEO5662
Departure: Cairo International Airport (HECA) at 16:45
Arrival: Munich Airport (EDDM) at 20:55

Weather Information
Getting current METAR information for HECA 241930Z 33012KT CAVOK 26/19 Q1015 NOSIG
Getting current METAR information for EDDM 241920Z 04005KT CAVOK 16/13 Q1004 NOSIG

Schedule Frequency

Route Map